Time;durP1;ratioP1;P1;durP2;ratioP2;P2;SDS_P1;SDS_P2;PMS_P1;PMS_P2;Temp;Humidity;BMP_temperature;BMP_pressure;BME280_temperature;BME280_humidity;BME280_pressure;Samples;Min_cycle;Max_cycle;Signal;HPM_P1;HPM_P2
2021/01/11 00:02:23;;;;;;;15.07;7.93;;;1.60;81.70;;;;;;4979256;28;20053;-84
2021/01/11 00:04:50;;;;;;;13.98;7.65;;;1.60;81.40;;;;;;4960325;28;20031;-84
2021/01/11 00:07:16;;;;;;;12.95;6.25;;;1.60;81.10;;;;;;4975463;28;20030;-84
2021/01/11 00:09:42;;;;;;;14.98;7.93;;;1.50;81.60;;;;;;4964669;28;20399;-84
2021/01/11 00:12:08;;;;;;;12.23;7.25;;;1.50;81.40;;;;;;4982516;28;20483;-84
2021/01/11 00:14:34;;;;;;;13.00;7.50;;;1.50;82.40;;;;;;4967853;28;20019;-84
2021/01/11 00:17:00;;;;;;;12.65;7.35;;;1.50;80.40;;;;;;4970494;28;20046;-84
2021/01/11 00:19:26;;;;;;;12.82;7.50;;;1.40;81.80;;;;;;4980886;28;20023;-84
2021/01/11 00:21:51;;;;;;;12.00;7.70;;;1.40;81.60;;;;;;4982483;28;20039;-84
2021/01/11 00:24:17;;;;;;;13.70;7.63;;;1.40;82.20;;;;;;4982879;28;20038;-84
2021/01/11 00:26:53;;;;;;;12.20;7.65;;;1.40;82.50;;;;;;4981997;28;20058;-85
2021/01/11 00:29:23;;;;;;;13.00;7.65;;;1.40;80.40;;;;;;4984446;28;20553;-85
2021/01/11 00:31:49;;;;;;;10.52;7.15;;;1.30;80.70;;;;;;4979265;28;20100;-85
2021/01/11 00:34:15;;;;;;;10.80;6.95;;;1.30;80.20;;;;;;4979139;28;20091;-85
2021/01/11 00:36:45;;;;;;;9.23;5.85;;;1.20;80.20;;;;;;4975994;28;20041;-84
2021/01/11 00:39:11;;;;;;;9.63;5.78;;;1.20;81.30;;;;;;4986636;28;20108;-85
2021/01/11 00:41:37;;;;;;;13.02;6.72;;;1.20;81.70;;;;;;4986330;28;20027;-85
2021/01/11 00:44:03;;;;;;;11.30;6.97;;;1.20;82.50;;;;;;4984498;28;20029;-84
2021/01/11 00:46:29;;;;;;;13.05;7.57;;;1.20;82.80;;;;;;4980393;28;20046;-84
2021/01/11 00:48:57;;;;;;;13.52;8.20;;;1.30;83.00;;;;;;4980541;28;20137;-84
2021/01/11 00:51:23;;;;;;;11.60;7.97;;;1.30;82.30;;;;;;4982189;28;20027;-84
2021/01/11 00:53:49;;;;;;;13.32;7.15;;;1.30;82.40;;;;;;4982633;28;20454;-84
2021/01/11 00:56:16;;;;;;;14.30;8.13;;;1.30;82.80;;;;;;4970894;28;20042;-85
2021/01/11 00:58:42;;;;;;;13.52;7.40;;;1.30;82.80;;;;;;4981686;28;20088;-84
2021/01/11 01:01:12;;;;;;;14.10;8.77;;;1.30;82.70;;;;;;4983409;28;20564;-84
2021/01/11 01:03:39;;;;;;;13.45;8.98;;;1.40;82.70;;;;;;4984900;28;20050;-84
2021/01/11 01:06:07;;;;;;;13.07;8.07;;;1.40;83.40;;;;;;4978475;28;20077;-84
2021/01/11 01:08:33;;;;;;;13.35;7.82;;;1.50;83.20;;;;;;4983437;28;20042;-85
2021/01/11 01:10:58;;;;;;;13.55;9.13;;;1.50;83.10;;;;;;4986004;28;20023;-83
2021/01/11 01:13:24;;;;;;;16.45;9.68;;;1.50;82.50;;;;;;4980241;28;20034;-84
2021/01/11 01:15:50;;;;;;;11.95;8.00;;;1.50;81.50;;;;;;4971862;28;20038;-85
2021/01/11 01:18:15;;;;;;;13.98;8.05;;;1.50;81.50;;;;;;4989265;28;20061;-84
2021/01/11 01:20:41;;;;;;;14.10;8.07;;;1.60;81.60;;;;;;4984814;28;20497;-84
2021/01/11 01:23:06;;;;;;;15.05;9.27;;;1.60;81.80;;;;;;4986146;28;20397;-85
2021/01/11 01:25:32;;;;;;;14.93;8.98;;;1.60;81.60;;;;;;4984669;28;20053;-84
2021/01/11 01:27:58;;;;;;;16.83;9.10;;;1.60;81.60;;;;;;4981746;28;20355;-84
2021/01/11 01:30:23;;;;;;;16.13;9.23;;;1.70;81.50;;;;;;4989781;28;20405;-84
2021/01/11 01:32:49;;;;;;;16.02;9.70;;;1.60;81.40;;;;;;4987410;28;20071;-84
2021/01/11 01:35:15;;;;;;;18.70;10.05;;;1.50;81.70;;;;;;4985470;28;20429;-84
2021/01/11 01:37:40;;;;;;;18.65;11.05;;;1.50;82.10;;;;;;4986052;28;20553;-85
2021/01/11 01:40:07;;;;;;;19.25;10.98;;;1.50;81.40;;;;;;4990444;28;20509;-84
2021/01/11 01:42:33;;;;;;;19.92;11.45;;;1.60;80.80;;;;;;4992760;28;20085;-84
2021/01/11 01:44:58;;;;;;;19.90;12.05;;;1.60;81.00;;;;;;4988641;28;20449;-84
2021/01/11 01:47:25;;;;;;;20.17;12.10;;;1.60;82.00;;;;;;4989171;28;20026;-84
2021/01/11 01:49:50;;;;;;;19.73;11.93;;;1.60;81.30;;;;;;4989544;28;20029;-84
2021/01/11 01:52:18;;;;;;;23.38;14.48;;;1.60;81.40;;;;;;4988034;28;20026;-84
2021/01/11 01:54:44;;;;;;;22.65;12.45;;;1.60;81.30;;;;;;4991793;28;20034;-84
2021/01/11 01:57:10;;;;;;;23.55;13.60;;;1.60;81.50;;;;;;4991567;28;20033;-84
2021/01/11 01:59:35;;;;;;;22.90;12.07;;;1.60;81.80;;;;;;4989726;28;20038;-84
2021/01/11 02:02:03;;;;;;;22.45;13.80;;;1.60;81.30;;;;;;4991608;28;20030;-84
2021/01/11 02:04:29;;;;;;;24.13;13.70;;;1.60;82.00;;;;;;4990439;28;20035;-84
2021/01/11 02:07:00;;;;;;;26.70;15.25;;;1.60;82.40;;;;;;4990633;28;20034;-85
2021/01/11 02:09:57;;;;;;;23.13;13.45;;;1.50;82.40;;;;;;4993019;28;20171;-85
2021/01/11 02:12:34;;;;;;;26.70;13.80;;;1.50;81.60;;;;;;4977220;28;20069;-84
2021/01/11 02:15:12;;;;;;;26.42;14.02;;;1.60;81.60;;;;;;4960944;29;20565;-83
2021/01/11 02:17:50;;;;;;;25.10;14.23;;;1.60;81.60;;;;;;4948152;29;20041;-84
2021/01/11 02:20:25;;;;;;;22.27;13.88;;;1.60;81.40;;;;;;4943654;28;20047;-83
2021/01/11 02:23:02;;;;;;;24.20;12.82;;;1.60;81.30;;;;;;4937847;29;20043;-84
2021/01/11 02:25:40;;;;;;;25.00;14.02;;;1.60;81.20;;;;;;4951033;29;20531;-84
2021/01/11 02:28:44;;;;;;;23.45;13.57;;;1.60;81.40;;;;;;4949015;29;20027;-84
2021/01/11 02:31:11;;;;;;;24.58;13.52;;;1.60;81.20;;;;;;4946760;29;20044;-84
2021/01/11 02:33:37;;;;;;;24.77;14.30;;;1.60;81.70;;;;;;4945742;29;20019;-84
2021/01/11 02:36:08;;;;;;;25.05;13.70;;;1.60;81.30;;;;;;4950959;29;20135;-84
2021/01/11 02:38:37;;;;;;;24.55;15.23;;;1.50;81.30;;;;;;4949095;29;20043;-83
2021/01/11 02:41:03;;;;;;;23.70;14.48;;;1.60;81.50;;;;;;4951106;29;20039;-84
2021/01/11 02:43:30;;;;;;;26.55;14.88;;;1.50;81.50;;;;;;4935438;29;20046;-84
2021/01/11 02:45:55;;;;;;;24.55;14.20;;;1.50;81.40;;;;;;4947146;28;20039;-84
2021/01/11 02:48:23;;;;;;;27.80;15.20;;;1.60;82.00;;;;;;4948254;28;20027;-84
2021/01/11 02:51:27;;;;;;;25.67;13.88;;;1.50;81.60;;;;;;4989580;28;20049;-84
2021/01/11 02:54:02;;;;;;;27.95;13.82;;;1.50;81.30;;;;;;4971558;28;20038;-84
2021/01/11 02:56:31;;;;;;;25.92;14.27;;;1.50;81.80;;;;;;4986448;28;20035;-84
2021/01/11 02:59:11;;;;;;;23.60;14.68;;;1.60;81.50;;;;;;4991637;28;20031;-84
2021/01/11 03:02:01;;;;;;;23.17;14.23;;;1.60;81.80;;;;;;4985331;28;20026;-84
2021/01/11 03:04:28;;;;;;;22.45;13.68;;;1.50;81.70;;;;;;4990532;28;20038;-84
2021/01/11 03:07:01;;;;;;;23.58;14.43;;;1.50;81.80;;;;;;4991674;28;20393;-84
2021/01/11 03:09:31;;;;;;;23.67;14.93;;;1.50;82.00;;;;;;4991581;28;20089;-84
2021/01/11 03:11:59;;;;;;;25.60;14.65;;;1.60;81.80;;;;;;4989153;28;20024;-84
2021/01/11 03:14:25;;;;;;;23.25;13.60;;;1.50;82.00;;;;;;4974270;28;20022;-84
2021/01/11 03:16:51;;;;;;;23.00;14.25;;;1.60;82.10;;;;;;4988516;28;20093;-84
2021/01/11 03:19:17;;;;;;;22.55;13.27;;;1.60;82.00;;;;;;4990980;28;20034;-84
2021/01/11 03:21:43;;;;;;;21.77;12.60;;;1.50;81.80;;;;;;4991891;28;20501;-84
2021/01/11 03:24:09;;;;;;;25.77;15.15;;;1.50;82.30;;;;;;4990276;28;20038;-84
2021/01/11 03:26:35;;;;;;;22.70;13.88;;;1.50;82.80;;;;;;4990834;28;20030;-84
2021/01/11 03:29:01;;;;;;;23.70;13.80;;;1.60;82.50;;;;;;4969452;28;20018;-84
2021/01/11 03:31:27;;;;;;;22.95;13.75;;;1.50;82.00;;;;;;4976313;28;20110;-85
2021/01/11 03:33:53;;;;;;;23.00;13.85;;;1.50;81.80;;;;;;4991118;28;20129;-84
2021/01/11 03:36:19;;;;;;;23.75;14.90;;;1.50;81.90;;;;;;4989528;28;20030;-84
2021/01/11 03:38:45;;;;;;;21.58;13.05;;;1.50;82.20;;;;;;4990697;28;20049;-84
2021/01/11 03:41:12;;;;;;;21.88;14.00;;;1.50;82.60;;;;;;4973700;28;20109;-84
2021/01/11 03:43:39;;;;;;;22.13;13.90;;;1.50;82.50;;;;;;4989692;28;20018;-84
2021/01/11 03:46:05;;;;;;;24.05;14.85;;;1.50;82.90;;;;;;4989489;28;20101;-83
2021/01/11 03:48:31;;;;;;;23.67;13.90;;;1.50;82.40;;;;;;4992606;28;20057;-85
2021/01/11 03:50:56;;;;;;;21.30;13.40;;;1.50;82.80;;;;;;4990653;28;20026;-84
2021/01/11 03:53:22;;;;;;;21.27;13.15;;;1.50;82.20;;;;;;4991122;28;20041;-84
2021/01/11 03:55:48;;;;;;;18.08;12.90;;;1.40;82.70;;;;;;4974012;28;20045;-84
2021/01/11 03:58:13;;;;;;;25.27;13.68;;;1.50;82.70;;;;;;4986527;28;20088;-84
2021/01/11 04:00:39;;;;;;;20.27;13.60;;;1.40;82.80;;;;;;4990292;28;20026;-84
2021/01/11 04:03:05;;;;;;;21.27;13.40;;;1.50;81.70;;;;;;4988835;28;20046;-84
2021/01/11 04:05:31;;;;;;;21.20;12.52;;;1.50;81.40;;;;;;4990613;28;20026;-83
2021/01/11 04:07:57;;;;;;;21.02;12.55;;;1.50;82.10;;;;;;4988928;28;20105;-84
2021/01/11 04:10:23;;;;;;;24.92;13.43;;;1.50;81.60;;;;;;4988034;28;20101;-85
2021/01/11 04:12:49;;;;;;;22.85;13.15;;;1.50;82.10;;;;;;4991026;28;20614;-84
2021/01/11 04:15:16;;;;;;;21.98;13.57;;;1.50;82.40;;;;;;4990935;28;20131;-84
2021/01/11 04:17:42;;;;;;;20.85;12.75;;;1.50;81.60;;;;;;4988506;28;20041;-84
2021/01/11 04:20:08;;;;;;;25.48;14.32;;;1.40;81.70;;;;;;4990034;28;20015;-84
2021/01/11 04:22:34;;;;;;;20.98;13.63;;;1.40;81.50;;;;;;4987230;28;20026;-83
2021/01/11 04:25:00;;;;;;;20.10;13.10;;;1.40;81.70;;;;;;4990302;28;20030;-84
2021/01/11 04:27:25;;;;;;;20.67;12.68;;;1.40;82.00;;;;;;4991351;28;20082;-84
2021/01/11 04:29:51;;;;;;;20.77;12.88;;;1.40;82.40;;;;;;4988644;28;20030;-85
2021/01/11 04:32:17;;;;;;;21.10;12.20;;;1.50;82.10;;;;;;4988640;28;20061;-82
2021/01/11 04:34:42;;;;;;;22.05;13.48;;;1.40;81.60;;;;;;4989640;28;20137;-84
2021/01/11 04:37:09;;;;;;;20.75;13.50;;;1.50;81.40;;;;;;4987626;28;20058;-84
2021/01/11 04:39:35;;;;;;;20.17;12.27;;;1.40;81.20;;;;;;4991439;28;20381;-84
2021/01/11 04:42:05;;;;;;;18.75;12.35;;;1.50;80.60;;;;;;4990232;28;20023;-84
2021/01/11 04:44:32;;;;;;;20.98;12.35;;;1.50;80.60;;;;;;4988233;28;20023;-84
2021/01/11 04:46:59;;;;;;;23.13;13.15;;;1.50;80.40;;;;;;4972868;28;20045;-84
2021/01/11 04:49:25;;;;;;;23.85;13.35;;;1.50;80.50;;;;;;4987653;28;20031;-84
2021/01/11 04:51:52;;;;;;;20.70;13.05;;;1.50;80.00;;;;;;4984026;28;20464;-84
2021/01/11 04:54:18;;;;;;;21.00;12.77;;;1.50;80.60;;;;;;4989305;28;20505;-84
2021/01/11 04:56:48;;;;;;;21.35;13.23;;;1.50;80.40;;;;;;5011281;28;20030;-84
2021/01/11 04:59:20;;;;;;;20.77;13.02;;;1.40;80.70;;;;;;5014050;28;20050;-84
2021/01/11 05:01:52;;;;;;;19.25;13.05;;;1.50;80.70;;;;;;4991706;28;20469;-83
2021/01/11 05:04:18;;;;;;;22.45;12.70;;;1.50;80.30;;;;;;4994570;28;20045;-84
2021/01/11 05:06:45;;;;;;;21.58;13.13;;;1.50;79.80;;;;;;4976487;28;20482;-84
2021/01/11 05:09:14;;;;;;;20.65;12.93;;;1.50;80.20;;;;;;4991912;28;20034;-84
2021/01/11 05:11:40;;;;;;;19.75;12.45;;;1.50;80.50;;;;;;4991234;28;20022;-84
2021/01/11 05:14:07;;;;;;;19.23;12.40;;;1.50;80.80;;;;;;4993435;28;20113;-84
2021/01/11 05:16:34;;;;;;;18.40;12.00;;;1.50;80.40;;;;;;4991866;28;20558;-84
2021/01/11 05:19:25;;;;;;;17.27;11.32;;;1.50;80.40;;;;;;4993032;28;20026;-84
2021/01/11 05:21:52;;;;;;;;;;;1.50;80.30;;;;;;4993898;28;20089;-83
2021/01/11 05:24:37;;;;;;;22.35;11.77;;;1.50;78.80;;;;;;4994035;28;19964;-84
2021/01/11 05:27:11;;;;;;;20.65;11.48;;;1.40;80.60;;;;;;4992304;28;20105;-84
2021/01/11 05:29:38;;;;;;;18.52;11.20;;;1.40;80.50;;;;;;4993897;28;20022;-84
2021/01/11 05:32:08;;;;;;;24.70;13.23;;;1.40;80.70;;;;;;4969758;28;20398;-84
2021/01/11 05:34:51;;;;;;;25.52;14.35;;;1.50;80.90;;;;;;4993027;28;20015;-84
2021/01/11 05:37:34;;;;;;;21.88;12.85;;;1.50;80.70;;;;;;4993348;28;20218;-83
2021/01/11 05:40:13;;;;;;;22.10;12.35;;;1.40;80.70;;;;;;4992504;28;20036;-84
2021/01/11 05:42:40;;;;;;;24.85;12.98;;;1.40;80.40;;;;;;4991382;28;20367;-83
2021/01/11 05:45:22;;;;;;;22.77;13.35;;;1.40;80.70;;;;;;4987022;28;20026;-83
2021/01/11 05:47:58;;;;;;;21.05;12.77;;;1.40;81.90;;;;;;4990652;28;20041;-84
2021/01/11 05:50:34;;;;;;;19.45;12.68;;;1.40;82.50;;;;;;4992773;28;20041;-84
2021/01/11 05:53:00;;;;;;;22.17;13.73;;;1.40;81.60;;;;;;4990440;28;20034;-83
2021/01/11 05:55:31;;;;;;;20.85;13.20;;;1.40;81.70;;;;;;4992734;28;20045;-84
2021/01/11 05:57:57;;;;;;;;;;;1.40;81.30;;;;;;4993740;28;20474;-84
2021/01/11 06:00:25;;;;;;;18.73;11.68;;;1.40;81.60;;;;;;4992038;28;19917;-84
2021/01/11 06:02:52;;;;;;;22.25;12.20;;;1.40;82.20;;;;;;4992219;28;20054;-84
2021/01/11 06:05:18;;;;;;;19.65;12.60;;;1.40;82.00;;;;;;4984556;28;20050;-83
2021/01/11 06:07:48;;;;;;;20.02;12.63;;;1.50;81.90;;;;;;4989430;28;20101;-83
2021/01/11 06:10:16;;;;;;;21.67;12.80;;;1.50;81.40;;;;;;4991228;28;20026;-84
2021/01/11 06:12:43;;;;;;;20.77;13.23;;;1.40;81.30;;;;;;4993380;28;20031;-84
2021/01/11 06:15:10;;;;;;;21.75;13.93;;;1.40;81.70;;;;;;4993792;28;20537;-83
2021/01/11 06:17:41;;;;;;;19.48;12.70;;;1.40;82.40;;;;;;4970094;28;20026;-84
2021/01/11 06:20:08;;;;;;;;;;;1.20;82.30;;;;;;4992075;28;20121;-83
2021/01/11 06:22:46;;;;;;;21.25;12.57;;;1.20;82.80;;;;;;4993461;28;19932;-84
2021/01/11 06:25:32;;;;;;;19.48;12.38;;;1.10;82.90;;;;;;4988557;28;20048;-84
2021/01/11 06:28:11;;;;;;;22.55;13.13;;;1.10;82.40;;;;;;4990437;28;20094;-84
2021/01/11 06:30:40;;;;;;;25.08;13.80;;;1.10;83.80;;;;;;4993050;28;20034;-84
2021/01/11 06:33:06;;;;;;;22.90;12.88;;;1.10;83.40;;;;;;4987512;28;20026;-84
2021/01/11 06:35:33;;;;;;;25.55;14.13;;;1.00;82.90;;;;;;4988600;28;20038;-84
2021/01/11 06:38:25;;;;;;;24.95;15.02;;;1.00;83.00;;;;;;4983759;28;20050;-84
2021/01/11 06:40:50;;;;;;;24.45;14.55;;;0.90;82.90;;;;;;4987616;28;20034;-84
2021/01/11 06:43:17;;;;;;;22.67;13.98;;;0.90;83.30;;;;;;4991394;28;20022;-83
2021/01/11 06:45:45;;;;;;;23.60;14.35;;;0.80;83.50;;;;;;4992871;28;20034;-83
2021/01/11 06:48:21;;;;;;;26.77;15.75;;;0.80;83.20;;;;;;4989976;28;20041;-84
2021/01/11 06:50:49;;;;;;;25.25;14.30;;;0.80;83.60;;;;;;4992201;28;20023;-84
2021/01/11 06:53:27;;;;;;;24.10;13.77;;;0.80;83.40;;;;;;4990099;28;20108;-84
2021/01/11 06:56:09;;;;;;;23.92;15.75;;;0.80;83.60;;;;;;4979515;28;20034;-84
2021/01/11 06:58:37;;;;;;;27.05;15.02;;;0.80;83.40;;;;;;4990193;28;20540;-84
2021/01/11 07:01:13;;;;;;;27.50;14.57;;;0.80;83.90;;;;;;4989424;28;20386;-84
2021/01/11 07:03:49;;;;;;;23.45;14.55;;;0.90;84.20;;;;;;4991074;28;20065;-84
2021/01/11 07:06:45;;;;;;;23.85;15.10;;;0.90;84.00;;;;;;4974376;28;20429;-84
2021/01/11 07:09:19;;;;;;;24.13;15.27;;;1.00;83.80;;;;;;4988123;28;20022;-83
2021/01/11 07:11:49;;;;;;;21.70;13.77;;;1.00;83.70;;;;;;4988254;28;20029;-85
2021/01/11 07:14:20;;;;;;;22.63;14.02;;;1.00;84.10;;;;;;4991348;28;20026;-83
2021/01/11 07:16:52;;;;;;;25.88;14.80;;;1.00;84.20;;;;;;4988317;28;20468;-83
2021/01/11 07:19:43;;;;;;;23.05;15.38;;;1.00;84.10;;;;;;4989342;28;20031;-84
2021/01/11 07:22:12;;;;;;;23.88;14.70;;;0.90;84.00;;;;;;4989005;28;20482;-83
2021/01/11 07:24:41;;;;;;;25.90;15.90;;;0.90;83.70;;;;;;4990060;28;20029;-83
2021/01/11 07:27:08;;;;;;;24.73;14.60;;;0.80;83.60;;;;;;4991786;28;20050;-84
2021/01/11 07:29:35;;;;;;;24.55;15.32;;;0.90;83.90;;;;;;4990529;28;20049;-84
2021/01/11 07:32:00;;;;;;;28.42;15.63;;;0.90;83.90;;;;;;4986929;28;20382;-84
2021/01/11 07:34:27;;;;;;;25.90;15.05;;;0.90;83.60;;;;;;4989982;28;20038;-84
2021/01/11 07:36:54;;;;;;;28.63;16.85;;;0.90;83.00;;;;;;4991406;28;20038;-83
2021/01/11 07:39:26;;;;;;;29.88;16.00;;;0.80;83.60;;;;;;4992050;28;20041;-83
2021/01/11 07:42:01;;;;;;;28.90;16.88;;;0.80;83.70;;;;;;4995007;28;20037;-84
2021/01/11 07:44:38;;;;;;;26.88;15.27;;;0.90;84.00;;;;;;5006587;28;20006;-84
2021/01/11 07:47:09;;;;;;;26.25;15.20;;;0.90;83.70;;;;;;4995099;28;20045;-84
2021/01/11 07:49:37;;;;;;;28.63;15.65;;;1.00;83.50;;;;;;4990636;28;20025;-84
2021/01/11 07:52:09;;;;;;;27.80;16.55;;;1.00;83.30;;;;;;4971889;28;20030;-84
2021/01/11 07:54:36;;;;;;;29.23;15.73;;;1.10;83.90;;;;;;4992013;28;20474;-84
2021/01/11 07:57:02;;;;;;;26.55;15.93;;;1.10;83.10;;;;;;4988589;28;20034;-84
2021/01/11 07:59:28;;;;;;;26.58;15.07;;;1.20;82.70;;;;;;4986872;28;20057;-84
2021/01/11 08:01:54;;;;;;;33.60;17.35;;;1.30;82.20;;;;;;4988181;28;20124;-83
2021/01/11 08:04:20;;;;;;;30.90;17.83;;;1.40;81.80;;;;;;4990550;28;20034;-84
2021/01/11 08:06:57;;;;;;;28.17;15.93;;;1.40;81.60;;;;;;4991274;28;20067;-84
2021/01/11 08:09:27;;;;;;;28.30;15.52;;;1.50;81.30;;;;;;4989898;28;20026;-84
2021/01/11 08:12:05;;;;;;;;;;;1.50;81.20;;;;;;4989324;28;20402;-84
2021/01/11 08:14:31;;;;;;;27.20;16.15;;;1.50;81.00;;;;;;4968286;28;20381;-84
2021/01/11 08:16:57;;;;;;;31.40;17.55;;;1.50;81.20;;;;;;4978440;28;20130;-84
2021/01/11 08:19:23;;;;;;;26.95;16.88;;;1.50;81.60;;;;;;4985425;28;20035;-84
2021/01/11 08:21:59;;;;;;;28.33;15.82;;;1.60;81.00;;;;;;4984146;28;20030;-86
2021/01/11 08:24:25;;;;;;;30.73;16.38;;;1.60;81.00;;;;;;4986568;28;20080;-84
2021/01/11 08:26:59;;;;;;;29.80;17.30;;;1.70;81.10;;;;;;4983746;28;20105;-84
2021/01/11 08:29:28;;;;;;;27.50;17.02;;;1.70;80.50;;;;;;4985648;28;20030;-83
2021/01/11 08:31:55;;;;;;;29.60;17.02;;;1.70;81.10;;;;;;4989494;28;20433;-83
2021/01/11 08:34:20;;;;;;;30.58;17.92;;;1.80;80.50;;;;;;4987934;28;20034;-84
2021/01/11 08:36:46;;;;;;;33.97;19.15;;;1.90;80.50;;;;;;4994960;28;20402;-84
2021/01/11 08:39:14;;;;;;;32.53;17.88;;;1.80;81.10;;;;;;4994009;28;20038;-86
2021/01/11 08:41:48;;;;;;;31.85;18.10;;;1.90;80.90;;;;;;4990388;28;20019;-85
2021/01/11 08:44:31;;;;;;;33.30;19.42;;;2.00;81.10;;;;;;4992883;28;20034;-85
2021/01/11 08:47:06;;;;;;;34.88;19.35;;;2.00;80.50;;;;;;4991468;28;20022;-83
2021/01/11 08:49:31;;;;;;;41.45;20.42;;;1.90;80.70;;;;;;4993322;28;20030;-85
2021/01/11 08:52:11;;;;;;;36.30;20.45;;;1.90;81.50;;;;;;4992915;28;20038;-81
2021/01/11 08:54:37;;;;;;;35.75;19.67;;;1.90;81.20;;;;;;4991414;28;20081;-83
2021/01/11 08:57:14;;;;;;;35.60;19.73;;;2.00;81.30;;;;;;4991893;28;20117;-83
2021/01/11 08:59:51;;;;;;;35.92;19.45;;;2.00;81.10;;;;;;4993962;28;20053;-83
2021/01/11 09:02:27;;;;;;;37.00;20.92;;;2.10;81.20;;;;;;4991275;28;20046;-83
2021/01/11 09:04:53;;;;;;;34.08;19.63;;;2.10;81.50;;;;;;4991056;28;20022;-83
2021/01/11 09:07:31;;;;;;;33.33;19.50;;;2.20;81.80;;;;;;4990315;28;20035;-82
2021/01/11 09:09:57;;;;;;;39.92;20.05;;;2.20;81.30;;;;;;4994316;28;20441;-83
2021/01/11 09:12:36;;;;;;;39.70;20.83;;;2.20;81.70;;;;;;4994728;28;20117;-82
2021/01/11 09:15:02;;;;;;;33.95;19.55;;;2.20;80.90;;;;;;4994035;28;20065;-83
2021/01/11 09:17:32;;;;;;;38.03;21.65;;;2.30;81.00;;;;;;4974576;28;20094;-83
2021/01/11 09:20:01;;;;;;;40.97;21.38;;;2.40;81.10;;;;;;4987511;28;20032;-83
2021/01/11 09:22:34;;;;;;;36.15;20.35;;;2.40;81.00;;;;;;4988149;28;20038;-83
2021/01/11 09:25:02;;;;;;;34.78;19.75;;;2.40;80.70;;;;;;4986110;28;20070;-83
2021/01/11 09:27:28;;;;;;;39.97;21.75;;;2.50;81.10;;;;;;4981232;28;20037;-82
2021/01/11 09:29:54;;;;;;;36.40;20.73;;;2.50;79.70;;;;;;4984799;28;20043;-83
2021/01/11 09:32:19;;;;;;;34.85;21.15;;;2.50;80.10;;;;;;4982378;28;20089;-83
2021/01/11 09:34:45;;;;;;;39.97;22.70;;;2.50;80.00;;;;;;4978576;28;20041;-83
2021/01/11 09:37:12;;;;;;;35.38;21.40;;;2.50;80.40;;;;;;4982823;28;20043;-83
2021/01/11 09:39:38;;;;;;;36.97;21.67;;;2.50;80.40;;;;;;4982308;28;20022;-84
2021/01/11 09:42:04;;;;;;;38.25;20.52;;;2.50;80.30;;;;;;4984164;28;20043;-83
2021/01/11 09:44:31;;;;;;;37.97;21.20;;;2.50;80.30;;;;;;4985404;28;20023;-83
2021/01/11 09:46:58;;;;;;;40.58;22.70;;;2.50;80.70;;;;;;4985485;28;20538;-82
2021/01/11 09:49:24;;;;;;;36.88;21.73;;;2.50;80.90;;;;;;4982290;28;20105;-83
2021/01/11 09:51:50;;;;;;;38.03;21.17;;;2.60;80.40;;;;;;4978243;28;20034;-82
2021/01/11 09:54:16;;;;;;;35.42;20.70;;;2.60;80.40;;;;;;4987048;28;20026;-83
2021/01/11 09:56:42;;;;;;;37.47;21.02;;;2.60;80.80;;;;;;4982642;28;20406;-83
2021/01/11 09:59:09;;;;;;;39.05;20.95;;;2.60;80.30;;;;;;4981624;28;20037;-83
2021/01/11 10:01:39;;;;;;;34.03;18.27;;;2.50;80.10;;;;;;4985353;28;20026;-83
2021/01/11 10:04:05;;;;;;;35.60;20.52;;;2.60;79.70;;;;;;4978244;28;20050;-83
2021/01/11 10:06:38;;;;;;;37.53;20.25;;;2.60;80.10;;;;;;4988047;28;20552;-83
2021/01/11 10:09:05;;;;;;;35.28;20.15;;;2.70;80.20;;;;;;4986433;28;20030;-83
2021/01/11 10:11:31;;;;;;;35.33;19.70;;;2.70;79.50;;;;;;4983802;28;20030;-83
2021/01/11 10:13:56;;;;;;;40.22;20.35;;;2.60;78.40;;;;;;4982559;28;20034;-83
2021/01/11 10:16:22;;;;;;;36.58;20.63;;;2.60;79.70;;;;;;4979161;28;20059;-83
2021/01/11 10:18:47;;;;;;;30.85;18.80;;;2.60;79.70;;;;;;4981771;28;20014;-83
2021/01/11 10:21:13;;;;;;;34.90;19.48;;;2.60;80.60;;;;;;4976567;28;20038;-83
2021/01/11 10:23:39;;;;;;;34.60;19.55;;;2.60;79.80;;;;;;4978686;28;20027;-84
2021/01/11 10:26:05;;;;;;;36.92;20.33;;;2.70;79.90;;;;;;4987840;28;20133;-81
2021/01/11 10:28:31;;;;;;;36.55;18.67;;;2.70;79.80;;;;;;4983719;28;20121;-84
2021/01/11 10:30:57;;;;;;;30.92;18.50;;;2.80;79.40;;;;;;4986505;28;20474;-83
2021/01/11 10:33:23;;;;;;;34.17;17.67;;;2.80;78.40;;;;;;4985001;28;20052;-82
2021/01/11 10:35:55;;;;;;;39.65;19.60;;;2.80;78.60;;;;;;4982172;28;20621;-83
2021/01/11 10:38:21;;;;;;;29.55;18.75;;;2.80;78.10;;;;;;4982306;28;20022;-82
2021/01/11 10:40:46;;;;;;;29.40;17.67;;;2.80;78.30;;;;;;4976538;28;20082;-83
2021/01/11 10:43:12;;;;;;;30.45;18.40;;;2.80;78.80;;;;;;4979090;28;20453;-83
2021/01/11 10:45:38;;;;;;;29.70;17.80;;;2.80;78.40;;;;;;4982913;28;20429;-84
2021/01/11 10:48:04;;;;;;;32.33;18.83;;;2.80;78.80;;;;;;4983744;28;20027;-83
2021/01/11 10:50:30;;;;;;;34.00;18.75;;;2.80;78.30;;;;;;4980314;28;20037;-83
2021/01/11 10:52:55;;;;;;;37.65;19.60;;;2.80;78.20;;;;;;4978934;28;20031;-83
2021/01/11 10:55:21;;;;;;;27.20;16.65;;;2.90;78.20;;;;;;4987992;28;20026;-82
2021/01/11 10:57:48;;;;;;;36.95;20.27;;;2.90;78.00;;;;;;4960903;28;20494;-81
2021/01/11 11:00:18;;;;;;;33.90;19.50;;;2.80;78.30;;;;;;4978700;28;20471;-84
2021/01/11 11:02:44;;;;;;;37.20;20.67;;;2.90;78.40;;;;;;4986780;28;20041;-81
2021/01/11 11:05:11;;;;;;;34.22;20.02;;;2.90;78.50;;;;;;4984154;28;20030;-84
2021/01/11 11:07:38;;;;;;;38.72;21.55;;;2.90;78.40;;;;;;4985267;28;20011;-84
2021/01/11 11:10:08;;;;;;;41.08;21.58;;;2.90;78.60;;;;;;4986297;28;20054;-84
2021/01/11 11:12:35;;;;;;;42.88;22.48;;;2.80;78.40;;;;;;4988191;28;20057;-82
2021/01/11 11:15:01;;;;;;;43.45;22.25;;;2.90;78.90;;;;;;4981058;28;20117;-82
2021/01/11 11:17:33;;;;;;;41.28;22.77;;;2.80;79.10;;;;;;4981096;28;20030;-82
2021/01/11 11:19:59;;;;;;;40.55;22.25;;;2.90;79.10;;;;;;4977909;28;20018;-82
2021/01/11 11:22:25;;;;;;;34.17;19.17;;;3.00;78.70;;;;;;4976134;28;20026;-84
2021/01/11 11:24:51;;;;;;;36.90;21.17;;;3.00;77.70;;;;;;4961547;28;20398;-83
2021/01/11 11:27:18;;;;;;;36.40;19.80;;;3.00;78.20;;;;;;4981059;28;20561;-83
2021/01/11 11:29:45;;;;;;;35.33;20.63;;;3.00;78.30;;;;;;4985054;28;20027;-84
2021/01/11 11:32:11;;;;;;;35.20;19.55;;;3.10;77.80;;;;;;4986978;28;20053;-83
2021/01/11 11:34:40;;;;;;;36.88;19.27;;;3.00;77.10;;;;;;4986182;28;20065;-83
2021/01/11 11:37:05;;;;;;;34.25;19.58;;;3.10;77.60;;;;;;4974563;28;20387;-84
2021/01/11 11:39:31;;;;;;;38.95;21.45;;;3.10;77.40;;;;;;4976405;28;20034;-84
2021/01/11 11:42:00;;;;;;;37.95;19.38;;;3.20;77.50;;;;;;4984037;28;20027;-83
2021/01/11 11:44:26;;;;;;;37.13;19.77;;;3.20;76.90;;;;;;4977089;28;20031;-84
2021/01/11 11:46:53;;;;;;;39.40;21.30;;;3.20;76.20;;;;;;4980957;28;20102;-84
2021/01/11 11:49:19;;;;;;;40.13;21.27;;;3.20;75.50;;;;;;4986762;28;20049;-84
2021/01/11 11:51:46;;;;;;;38.50;20.90;;;3.20;76.50;;;;;;4975608;28;20042;-84
2021/01/11 11:54:12;;;;;;;37.70;20.23;;;3.10;76.80;;;;;;4980354;28;20475;-84
2021/01/11 11:56:41;;;;;;;35.33;20.15;;;3.10;76.90;;;;;;4981612;28;20050;-84
2021/01/11 11:59:08;;;;;;;37.25;20.10;;;3.20;76.60;;;;;;4976334;28;20103;-84
2021/01/11 12:01:35;;;;;;;40.03;23.08;;;3.10;76.60;;;;;;4962843;28;20030;-84
2021/01/11 12:04:01;;;;;;;40.60;22.33;;;3.10;77.00;;;;;;4980043;28;20051;-84
2021/01/11 12:06:42;;;;;;;43.30;22.77;;;3.10;76.90;;;;;;4973193;28;20027;-83
2021/01/11 12:09:08;;;;;;;39.88;21.02;;;3.10;77.10;;;;;;4981575;28;20045;-84
2021/01/11 12:11:49;;;;;;;45.58;22.48;;;3.10;77.40;;;;;;4960684;28;20034;-83
2021/01/11 12:14:16;;;;;;;43.00;24.10;;;3.10;76.70;;;;;;4980411;28;20018;-85
2021/01/11 12:16:42;;;;;;;43.00;23.23;;;3.10;77.10;;;;;;4978595;28;20440;-85
2021/01/11 12:19:08;;;;;;;45.35;23.55;;;3.10;76.80;;;;;;4973983;28;20117;-85
2021/01/11 12:21:35;;;;;;;46.55;25.73;;;3.10;77.20;;;;;;4976565;28;20375;-85
2021/01/11 12:24:02;;;;;;;43.50;23.77;;;3.10;78.40;;;;;;4980445;28;20019;-85
2021/01/11 12:26:28;;;;;;;47.10;24.67;;;3.10;78.20;;;;;;4980852;28;20030;-85
2021/01/11 12:28:54;;;;;;;45.13;23.95;;;3.10;76.20;;;;;;4982001;28;20066;-85
2021/01/11 12:31:27;;;;;;;41.45;22.77;;;3.00;76.50;;;;;;4981328;28;20019;-85
2021/01/11 12:33:53;;;;;;;45.70;23.38;;;3.10;76.80;;;;;;4973922;28;20023;-84
2021/01/11 12:36:27;;;;;;;39.83;22.00;;;3.00;76.00;;;;;;4971990;28;20054;-86
2021/01/11 12:38:53;;;;;;;45.42;22.77;;;3.10;75.80;;;;;;4979884;28;20499;-85
2021/01/11 12:41:23;;;;;;;38.78;20.77;;;3.00;75.60;;;;;;4978231;28;20034;-85
2021/01/11 12:43:49;;;;;;;46.08;23.48;;;3.00;75.90;;;;;;4961897;28;20042;-85
2021/01/11 12:46:17;;;;;;;49.65;24.27;;;3.00;76.00;;;;;;4974279;28;20034;-83
2021/01/11 12:48:43;;;;;;;45.20;24.13;;;2.90;76.30;;;;;;4975741;28;20485;-84
2021/01/11 12:51:22;;;;;;;41.80;23.15;;;2.90;76.40;;;;;;4974724;28;20035;-83